createdAt,value
2023-05-04T00:00:54.449Z,5.03
2023-05-04T00:03:23.006Z,5.43
2023-05-04T00:05:51.072Z,2.77
2023-05-04T00:08:18.970Z,2.43
2023-05-04T00:10:46.813Z,2.57
2023-05-04T00:13:14.408Z,2.40
2023-05-04T00:15:42.611Z,2.10
2023-05-04T00:18:10.565Z,2.33
2023-05-04T00:20:39.576Z,3.70
2023-05-04T00:23:07.536Z,2.63
2023-05-04T00:25:34.912Z,2.63
2023-05-04T00:28:02.957Z,2.87
2023-05-04T00:30:30.863Z,6.00
2023-05-04T00:32:58.739Z,2.57
2023-05-04T00:35:26.372Z,2.97
2023-05-04T00:37:54.284Z,3.17
2023-05-04T00:40:22.450Z,3.87
2023-05-04T00:42:57.793Z,2.97
2023-05-04T00:45:30.265Z,2.17
2023-05-04T00:47:58.173Z,1.50
2023-05-04T00:50:26.206Z,2.60
2023-05-04T00:53:02.462Z,2.77
2023-05-04T00:55:30.416Z,3.05
2023-05-04T00:57:58.295Z,4.03
2023-05-04T01:00:25.805Z,5.10
2023-05-04T01:02:53.454Z,3.47
2023-05-04T01:05:21.419Z,6.00
2023-05-04T01:07:52.914Z,2.30
2023-05-04T01:10:24.601Z,2.13
2023-05-04T01:12:58.669Z,4.00
2023-05-04T01:15:26.301Z,2.37
2023-05-04T01:17:54.300Z,2.23
2023-05-04T01:20:21.959Z,2.37
2023-05-04T01:22:49.834Z,2.03
2023-05-04T01:25:17.878Z,1.97
2023-05-04T01:28:03.426Z,3.53
2023-05-04T01:30:32.879Z,2.83
2023-05-04T01:33:00.397Z,3.53
2023-05-04T01:35:28.134Z,1.20
2023-05-04T01:37:55.571Z,3.37
2023-05-04T01:40:23.331Z,2.77
2023-05-04T01:42:50.662Z,2.37
2023-05-04T01:45:19.338Z,1.67
2023-05-04T01:47:47.117Z,1.50
2023-05-04T01:50:14.923Z,2.37
2023-05-04T01:52:42.864Z,2.27
2023-05-04T01:55:10.835Z,2.37
2023-05-04T01:57:38.741Z,3.83
2023-05-04T02:00:08.810Z,3.63
2023-05-04T02:02:43.944Z,4.10
2023-05-04T02:05:11.802Z,2.83
2023-05-04T02:07:39.684Z,4.43
2023-05-04T02:10:10.671Z,2.07
2023-05-04T02:12:38.561Z,1.67
2023-05-04T02:15:09.112Z,4.00
2023-05-04T02:17:36.663Z,3.07
2023-05-04T02:20:12.023Z,3.87
2023-05-04T02:22:39.950Z,3.70
2023-05-04T02:25:08.838Z,5.07
2023-05-04T02:27:36.790Z,2.33
2023-05-04T02:30:05.825Z,3.40
2023-05-04T02:32:34.113Z,7.27
2023-05-04T02:35:01.666Z,2.50
2023-05-04T02:37:33.612Z,4.73
2023-05-04T02:40:01.559Z,2.07
2023-05-04T02:42:29.442Z,3.07
2023-05-04T02:44:57.372Z,1.50
2023-05-04T02:47:25.513Z,3.07
2023-05-04T02:49:52.962Z,2.27
2023-05-04T02:52:20.804Z,2.27
2023-05-04T02:54:49.022Z,1.33
2023-05-04T02:57:17.993Z,1.70
2023-05-04T02:59:45.508Z,2.57
2023-05-04T03:02:13.515Z,5.20
2023-05-04T03:05:01.426Z,1.73
2023-05-04T03:07:28.568Z,2.00
2023-05-04T03:09:56.585Z,5.23
2023-05-04T03:12:25.115Z,3.10
2023-05-04T03:14:52.968Z,4.90
2023-05-04T03:17:20.895Z,6.60
2023-05-04T03:19:48.743Z,3.70
2023-05-04T03:22:16.663Z,6.53
2023-05-04T03:24:44.685Z,4.67
2023-05-04T03:27:12.419Z,4.03
2023-05-04T03:29:40.643Z,1.53
2023-05-04T03:32:08.719Z,2.10
2023-05-04T03:34:36.501Z,5.10
2023-05-04T03:37:04.487Z,2.07
2023-05-04T03:39:33.410Z,3.80
2023-05-04T03:42:01.328Z,1.67
2023-05-04T03:44:29.297Z,2.93
2023-05-04T03:46:57.207Z,9.30
2023-05-04T03:49:25.014Z,6.23
2023-05-04T03:51:53.011Z,4.67
2023-05-04T03:54:20.783Z,3.07
2023-05-04T03:56:48.251Z,1.93
2023-05-04T03:59:16.257Z,6.60
2023-05-04T04:01:44.246Z,3.83
2023-05-04T04:04:11.852Z,6.90
2023-05-04T04:06:41.961Z,12.63
2023-05-04T04:09:10.861Z,3.20
2023-05-04T04:11:38.740Z,4.67
2023-05-04T04:14:06.412Z,4.23
2023-05-04T04:16:34.406Z,6.57
2023-05-04T04:19:02.157Z,3.07
2023-05-04T04:21:29.950Z,2.10
2023-05-04T04:23:57.858Z,11.20
2023-05-04T04:26:25.690Z,1.83
2023-05-04T04:28:53.563Z,6.90
2023-05-04T04:31:21.785Z,3.13
2023-05-04T04:33:50.679Z,2.97
2023-05-04T04:36:18.314Z,8.13
2023-05-04T04:38:46.459Z,6.93
2023-05-04T04:41:14.670Z,5.50
2023-05-04T04:43:42.539Z,4.47
2023-05-04T04:46:10.654Z,4.33
2023-05-04T04:48:38.591Z,7.23
2023-05-04T04:51:10.748Z,4.23
2023-05-04T04:53:38.971Z,3.60
2023-05-04T04:56:07.687Z,3.77
2023-05-04T04:58:35.187Z,5.33
2023-05-04T05:01:05.199Z,2.90
2023-05-04T05:03:33.982Z,4.47
2023-05-04T05:06:01.966Z,10.27
2023-05-04T05:08:29.975Z,6.53
2023-05-04T05:10:58.247Z,6.00
2023-05-04T05:13:25.886Z,8.70
2023-05-04T05:15:53.819Z,1.93
2023-05-04T05:18:21.526Z,2.43
2023-05-04T05:20:49.476Z,5.70
2023-05-04T05:23:17.510Z,4.97
2023-05-04T05:25:44.720Z,5.67
2023-05-04T05:28:14.040Z,4.07
2023-05-04T05:30:42.107Z,3.90
2023-05-04T05:33:10.276Z,5.30
2023-05-04T05:35:38.323Z,3.13
2023-05-04T05:38:08.698Z,4.23
2023-05-04T05:40:37.324Z,5.07
2023-05-04T05:43:06.008Z,3.67
2023-05-04T05:45:33.940Z,6.77
2023-05-04T05:48:01.499Z,8.33
2023-05-04T05:50:29.666Z,1.93
2023-05-04T05:52:57.550Z,4.33
2023-05-04T05:55:25.407Z,5.87
2023-05-04T05:57:53.338Z,2.80
2023-05-04T06:00:22.405Z,2.83
2023-05-04T06:02:50.156Z,4.67
2023-05-04T06:05:20.794Z,5.50
2023-05-04T06:07:48.306Z,2.80
2023-05-04T06:10:16.607Z,5.60
2023-05-04T06:12:44.536Z,4.17
2023-05-04T06:15:14.438Z,3.80
2023-05-04T06:17:42.335Z,4.63
2023-05-04T06:20:10.981Z,5.87
2023-05-04T06:22:38.685Z,4.73
2023-05-04T06:25:08.476Z,4.43
2023-05-04T06:27:36.078Z,6.57
2023-05-04T06:30:04.201Z,11.63
2023-05-04T06:32:32.241Z,3.83
2023-05-04T06:35:00.281Z,6.63
2023-05-04T06:37:28.445Z,5.73
2023-05-04T06:39:56.162Z,3.93
2023-05-04T06:42:24.190Z,5.90
2023-05-04T06:44:53.010Z,5.17
2023-05-04T06:47:20.510Z,5.23
2023-05-04T06:49:48.011Z,2.90
2023-05-04T06:52:15.922Z,5.97
2023-05-04T06:54:43.402Z,4.93
2023-05-04T06:57:11.584Z,3.73
2023-05-04T06:59:38.577Z,7.40
2023-05-04T07:02:06.546Z,6.77
2023-05-04T07:04:34.490Z,6.17
2023-05-04T07:07:02.448Z,6.10
2023-05-04T07:09:30.140Z,6.87
2023-05-04T07:11:58.089Z,5.70
2023-05-04T07:14:25.830Z,7.17
2023-05-04T07:16:53.617Z,7.37
2023-05-04T07:19:21.159Z,4.63
2023-05-04T07:21:48.770Z,5.00
2023-05-04T07:24:16.174Z,5.20
2023-05-04T07:26:44.151Z,4.50
2023-05-04T07:29:12.129Z,4.70
2023-05-04T07:31:39.616Z,4.47
2023-05-04T07:34:07.373Z,5.00
2023-05-04T07:36:37.719Z,5.00
2023-05-04T07:39:05.677Z,4.70
2023-05-04T07:41:33.532Z,4.27
2023-05-04T07:44:01.038Z,4.70
2023-05-04T07:46:29.181Z,5.77
2023-05-04T07:48:56.993Z,3.63
2023-05-04T07:51:24.966Z,3.70
2023-05-04T07:53:52.646Z,4.13
2023-05-04T07:56:20.090Z,5.73
2023-05-04T07:58:51.214Z,5.43
2023-05-04T08:01:18.748Z,4.80
2023-05-04T08:03:47.007Z,4.73
2023-05-04T08:06:14.980Z,4.80
2023-05-04T08:08:43.131Z,4.40
2023-05-04T08:11:20.410Z,4.20
2023-05-04T08:13:49.314Z,8.00
2023-05-04T08:16:17.196Z,10.83
2023-05-04T08:18:44.763Z,5.37
2023-05-04T08:21:12.737Z,8.07
2023-05-04T08:23:40.661Z,5.63
2023-05-04T08:26:08.564Z,4.70
2023-05-04T08:28:39.649Z,5.87
2023-05-04T08:31:07.788Z,5.73
2023-05-04T08:33:35.297Z,7.33
2023-05-04T08:36:04.548Z,6.30
2023-05-04T08:38:32.258Z,5.53
2023-05-04T08:41:05.802Z,4.90
2023-05-04T08:43:36.563Z,4.77
2023-05-04T08:46:04.923Z,5.70
2023-05-04T08:48:35.961Z,6.07
2023-05-04T08:51:04.841Z,15.40
2023-05-04T08:53:32.376Z,4.53
2023-05-04T08:56:04.715Z,6.50
2023-05-04T08:58:31.839Z,4.47
2023-05-04T09:01:00.632Z,4.27
2023-05-04T09:03:28.038Z,3.40
2023-05-04T09:06:17.788Z,4.60
2023-05-04T09:08:45.746Z,4.10
2023-05-04T09:11:13.870Z,4.23
2023-05-04T09:13:43.188Z,5.10
2023-05-04T09:16:10.786Z,5.70
2023-05-04T09:18:37.929Z,3.93
2023-05-04T09:21:09.101Z,4.33
2023-05-04T09:23:51.943Z,5.20
2023-05-04T09:26:33.108Z,2.93
2023-05-04T09:29:13.807Z,5.17
2023-05-04T09:31:49.202Z,5.73
2023-05-04T09:34:17.146Z,4.07
2023-05-04T09:36:44.168Z,4.23
2023-05-04T09:39:13.301Z,4.57
2023-05-04T09:41:41.846Z,3.40
2023-05-04T09:44:18.471Z,5.93
2023-05-04T09:46:59.231Z,8.50
2023-05-04T09:49:37.714Z,3.87
2023-05-04T09:52:06.416Z,11.33
2023-05-04T09:54:35.560Z,4.77
2023-05-04T09:57:15.838Z,4.50
2023-05-04T09:59:43.571Z,7.37
2023-05-04T10:02:22.144Z,4.90
2023-05-04T10:04:51.327Z,4.67
2023-05-04T10:07:19.352Z,3.77
2023-05-04T10:09:47.639Z,4.20
2023-05-04T10:12:17.410Z,4.50
2023-05-04T10:14:47.015Z,3.77
2023-05-04T10:17:36.174Z,3.50
2023-05-04T10:20:27.756Z,5.30
2023-05-04T10:23:22.531Z,5.87
2023-05-04T10:26:28.282Z,4.67
2023-05-04T10:29:23.452Z,3.73
2023-05-04T10:31:51.120Z,4.67
2023-05-04T10:34:31.886Z,4.77
2023-05-04T10:36:59.360Z,5.80
2023-05-04T10:39:55.474Z,6.43
2023-05-04T10:42:22.682Z,7.03
2023-05-04T10:45:15.766Z,4.03
2023-05-04T10:47:43.401Z,7.70
2023-05-04T10:50:12.315Z,4.25
2023-05-04T10:52:46.198Z,4.82
2023-05-04T10:55:13.890Z,4.67
2023-05-04T10:57:52.893Z,5.37
2023-05-04T11:00:20.639Z,3.97
2023-05-04T11:02:48.582Z,5.03
2023-05-04T11:05:20.620Z,4.23
2023-05-04T11:07:52.998Z,5.63
2023-05-04T11:10:45.043Z,5.80
2023-05-04T11:13:13.109Z,7.20
2023-05-04T11:15:47.506Z,4.53
2023-05-04T11:18:14.534Z,5.93
2023-05-04T11:20:42.693Z,6.93
2023-05-04T11:23:10.482Z,6.57
2023-05-04T11:25:38.047Z,6.28
2023-05-04T11:28:06.752Z,5.03
2023-05-04T11:30:35.131Z,6.95
2023-05-04T11:33:05.346Z,7.65
2023-05-04T11:35:33.306Z,5.00
2023-05-04T11:38:01.082Z,5.72
2023-05-04T11:40:29.217Z,6.40
2023-05-04T11:42:57.602Z,11.13
2023-05-04T11:45:27.637Z,5.30
2023-05-04T11:47:56.774Z,6.72
2023-05-04T11:50:24.695Z,6.93
2023-05-04T11:52:52.194Z,6.55
2023-05-04T11:55:27.377Z,5.22
2023-05-04T11:57:58.846Z,6.07
2023-05-04T12:00:39.859Z,5.38
2023-05-04T12:03:08.358Z,11.23
2023-05-04T12:05:36.301Z,4.72
2023-05-04T12:08:03.814Z,5.72
2023-05-04T12:10:34.969Z,5.15
2023-05-04T12:13:15.697Z,3.90
2023-05-04T12:15:44.054Z,7.85
2023-05-04T12:18:21.883Z,5.55
2023-05-04T12:20:49.723Z,5.43
2023-05-04T12:23:17.807Z,6.07
2023-05-04T12:25:57.334Z,4.68
2023-05-04T12:28:27.034Z,4.55
2023-05-04T12:30:54.508Z,4.20
2023-05-04T12:33:22.226Z,6.03
2023-05-04T12:35:55.571Z,4.93
2023-05-04T12:38:23.232Z,5.20
2023-05-04T12:40:50.478Z,7.07
2023-05-04T12:43:20.890Z,5.13
2023-05-04T12:45:49.327Z,4.63
2023-05-04T12:48:17.306Z,4.55
2023-05-04T12:50:45.858Z,3.60
2023-05-04T12:53:13.317Z,3.53
2023-05-04T12:55:40.679Z,4.57
2023-05-04T12:58:08.783Z,3.65
2023-05-04T13:00:37.476Z,3.42
2023-05-04T13:03:05.777Z,3.50
2023-05-04T13:05:33.779Z,3.95
2023-05-04T13:08:01.567Z,3.10
2023-05-04T13:10:29.724Z,3.50
2023-05-04T13:12:57.412Z,3.60
2023-05-04T13:15:25.290Z,4.15
2023-05-04T13:17:53.946Z,2.67
2023-05-04T13:20:22.691Z,5.07
2023-05-04T13:22:51.662Z,2.67
2023-05-04T13:25:19.318Z,2.83
2023-05-04T13:27:47.082Z,5.68
2023-05-04T13:30:18.403Z,6.45
2023-05-04T13:32:46.294Z,5.20
2023-05-04T13:35:14.447Z,3.53
2023-05-04T13:37:42.290Z,4.97
2023-05-04T13:40:12.508Z,3.90
2023-05-04T13:42:39.989Z,5.75
2023-05-04T13:45:11.249Z,4.88
2023-05-04T13:47:40.360Z,2.92
2023-05-04T13:50:10.024Z,2.67
2023-05-04T13:52:37.871Z,3.10
2023-05-04T13:55:07.550Z,4.72
2023-05-04T13:57:35.263Z,3.15
2023-05-04T14:00:07.867Z,3.28
2023-05-04T14:02:36.268Z,3.38
2023-05-04T14:05:08.601Z,6.07
2023-05-04T14:07:36.482Z,3.95
2023-05-04T14:10:04.731Z,5.82
2023-05-04T14:12:32.944Z,3.35
2023-05-04T14:15:01.404Z,3.17
2023-05-04T14:17:29.404Z,5.28
2023-05-04T14:19:58.950Z,4.03
2023-05-04T14:22:26.710Z,5.88
2023-05-04T14:24:54.527Z,3.35
2023-05-04T14:27:22.727Z,3.35
2023-05-04T14:29:50.566Z,3.78
2023-05-04T14:32:18.342Z,2.78
2023-05-04T14:34:46.656Z,4.03
2023-05-04T14:37:14.326Z,4.10
2023-05-04T14:39:42.494Z,3.83
2023-05-04T14:42:10.433Z,2.50
2023-05-04T14:44:38.382Z,3.63
2023-05-04T14:47:07.782Z,5.22
2023-05-04T14:49:37.534Z,4.65
2023-05-04T14:52:06.260Z,8.30
2023-05-04T14:54:33.789Z,3.50
2023-05-04T14:57:01.781Z,3.80
2023-05-04T14:59:32.167Z,3.22
2023-05-04T15:02:00.015Z,3.25
2023-05-04T15:04:27.800Z,2.72
2023-05-04T15:06:55.450Z,3.05
2023-05-04T15:09:22.937Z,3.10
2023-05-04T15:11:50.931Z,3.65
2023-05-04T15:14:18.356Z,5.88
2023-05-04T15:16:45.437Z,2.40
2023-05-04T15:19:12.828Z,3.33
2023-05-04T15:21:40.422Z,4.38
2023-05-04T15:24:08.732Z,3.10
2023-05-04T15:26:36.666Z,3.10
2023-05-04T15:29:04.169Z,7.75
2023-05-04T15:31:31.732Z,2.72
2023-05-04T15:34:00.876Z,4.70
2023-05-04T15:36:28.493Z,4.13
2023-05-04T15:38:55.959Z,5.70
2023-05-04T15:41:23.554Z,4.22
2023-05-04T15:43:51.072Z,4.80
2023-05-04T15:46:18.515Z,6.00
2023-05-04T15:48:46.042Z,4.47
2023-05-04T15:51:13.914Z,5.72
2023-05-04T15:53:44.819Z,2.88
2023-05-04T15:56:15.006Z,5.28
2023-05-04T15:58:42.857Z,3.00
2023-05-04T16:01:14.108Z,4.28
2023-05-04T16:03:43.642Z,4.45
2023-05-04T16:06:12.766Z,5.22
2023-05-04T16:08:40.314Z,6.68
2023-05-04T16:11:08.081Z,4.47
2023-05-04T16:13:36.219Z,5.47
2023-05-04T16:16:05.743Z,2.67
2023-05-04T16:18:33.607Z,3.95
2023-05-04T16:21:01.610Z,3.67
2023-05-04T16:23:29.196Z,3.38
2023-05-04T16:25:56.669Z,9.95
2023-05-04T16:28:24.453Z,4.82
2023-05-04T16:30:52.644Z,4.57
2023-05-04T16:33:20.327Z,4.63
2023-05-04T16:35:48.167Z,8.02
2023-05-04T16:38:16.293Z,3.38
2023-05-04T16:40:44.546Z,3.75
2023-05-04T16:43:12.977Z,4.15
2023-05-04T16:45:40.247Z,3.97
2023-05-04T16:48:07.968Z,3.47
2023-05-04T16:50:35.986Z,6.05
2023-05-04T16:53:03.879Z,7.05
2023-05-04T16:55:31.652Z,2.63
2023-05-04T16:57:59.788Z,3.80
2023-05-04T17:00:27.284Z,6.57
2023-05-04T17:02:54.882Z,3.72
2023-05-04T17:05:22.941Z,3.45
2023-05-04T17:07:51.821Z,4.05
2023-05-04T17:10:19.823Z,2.80
2023-05-04T17:12:47.720Z,2.78
2023-05-04T17:15:15.360Z,2.50
2023-05-04T17:17:43.263Z,2.58
2023-05-04T17:20:15.082Z,3.03
2023-05-04T17:22:43.395Z,5.75
2023-05-04T17:25:12.082Z,2.85
2023-05-04T17:27:39.968Z,5.97
2023-05-04T17:30:10.655Z,2.90
2023-05-04T17:32:38.888Z,4.38
2023-05-04T17:35:16.409Z,4.75
2023-05-04T17:37:51.795Z,3.53
2023-05-04T17:40:19.003Z,5.25
2023-05-04T17:42:46.838Z,6.22
2023-05-04T17:45:14.653Z,4.60
2023-05-04T17:47:46.500Z,3.85
2023-05-04T17:50:14.490Z,4.88
2023-05-04T17:52:42.384Z,7.38
2023-05-04T17:55:10.875Z,7.70
2023-05-04T17:57:38.745Z,4.27
2023-05-04T18:00:10.856Z,4.35
2023-05-04T18:02:38.916Z,4.63
2023-05-04T18:05:10.342Z,4.87
2023-05-04T18:07:38.601Z,5.83
2023-05-04T18:10:08.160Z,6.67
2023-05-04T18:12:37.804Z,7.53
2023-05-04T18:15:09.114Z,6.23
2023-05-04T18:17:40.089Z,8.67
2023-05-04T18:20:10.788Z,4.83
2023-05-04T18:22:38.571Z,7.07
2023-05-04T18:25:09.007Z,7.00
2023-05-04T18:27:36.664Z,7.70
2023-05-04T18:30:06.426Z,6.87
2023-05-04T18:32:34.508Z,6.77
2023-05-04T18:35:01.763Z,6.23
2023-05-04T18:37:32.165Z,6.70
2023-05-04T18:40:00.279Z,9.37
2023-05-04T18:42:28.320Z,7.00
2023-05-04T18:44:56.279Z,7.17
2023-05-04T18:47:23.742Z,13.47
2023-05-04T18:49:52.473Z,7.97
2023-05-04T18:52:20.402Z,7.70
2023-05-04T18:54:48.122Z,8.97
2023-05-04T18:57:16.134Z,6.93
2023-05-04T18:59:43.503Z,10.40
2023-05-04T19:02:11.143Z,6.77
2023-05-04T19:04:39.057Z,6.80
2023-05-04T19:07:06.342Z,6.57
2023-05-04T19:09:34.302Z,5.90
2023-05-04T19:12:02.199Z,8.13
2023-05-04T19:14:31.311Z,7.10
2023-05-04T19:17:00.723Z,7.40
2023-05-04T19:19:28.508Z,8.13
2023-05-04T19:21:56.123Z,14.37
2023-05-04T19:24:24.232Z,6.83
2023-05-04T19:26:51.896Z,7.60
2023-05-04T19:29:19.640Z,8.60
2023-05-04T19:31:55.177Z,8.73
2023-05-04T19:34:23.126Z,8.70
2023-05-04T19:36:50.173Z,9.70
2023-05-04T19:39:18.346Z,8.83
2023-05-04T19:41:46.224Z,7.00
2023-05-04T19:44:14.082Z,10.43
2023-05-04T19:46:42.615Z,7.57
2023-05-04T19:49:11.680Z,7.83
2023-05-04T19:51:39.598Z,7.87
2023-05-04T19:54:07.938Z,11.70
2023-05-04T19:56:36.285Z,7.43
2023-05-04T19:59:04.140Z,9.20
2023-05-04T20:01:32.562Z,7.67
2023-05-04T20:04:00.517Z,6.60
2023-05-04T20:06:28.366Z,8.47
2023-05-04T20:08:56.285Z,8.07
2023-05-04T20:11:23.724Z,9.87
2023-05-04T20:13:51.984Z,10.33
2023-05-04T20:16:20.868Z,8.90
2023-05-04T20:18:48.739Z,7.43
2023-05-04T20:21:16.164Z,7.00
2023-05-04T20:23:43.725Z,8.43
2023-05-04T20:26:11.563Z,7.83
2023-05-04T20:28:39.210Z,8.93
2023-05-04T20:31:07.658Z,9.40
2023-05-04T20:33:36.034Z,11.10
2023-05-04T20:36:05.078Z,9.77
2023-05-04T20:38:33.479Z,9.50
2023-05-04T20:41:08.026Z,12.50
2023-05-04T20:43:36.633Z,12.30
2023-05-04T20:46:07.585Z,10.83
2023-05-04T20:48:35.760Z,11.17
2023-05-04T20:51:14.056Z,11.63
2023-05-04T20:53:42.845Z,8.47
2023-05-04T20:56:10.806Z,11.73
2023-05-04T20:58:38.455Z,11.50
2023-05-04T21:01:06.933Z,8.87
2023-05-04T21:03:35.327Z,9.50
2023-05-04T21:06:02.779Z,7.87
2023-05-04T21:08:30.467Z,10.03
2023-05-04T21:10:58.755Z,9.73
2023-05-04T21:13:26.824Z,7.83
2023-05-04T21:15:54.799Z,9.43
2023-05-04T21:18:22.637Z,8.90
2023-05-04T21:20:50.607Z,9.00
2023-05-04T21:23:18.584Z,8.80
2023-05-04T21:25:46.527Z,8.90
2023-05-04T21:28:14.586Z,10.43
2023-05-04T21:30:46.072Z,8.50
2023-05-04T21:33:13.904Z,12.40
2023-05-04T21:35:41.449Z,10.00
2023-05-04T21:38:12.858Z,8.97
2023-05-04T21:40:40.862Z,10.17
2023-05-04T21:43:08.842Z,8.90
2023-05-04T21:45:36.873Z,10.60
2023-05-04T21:48:05.434Z,11.73
2023-05-04T21:50:33.369Z,9.97
2023-05-04T21:53:00.850Z,9.87
2023-05-04T21:55:30.420Z,9.27
2023-05-04T21:58:18.111Z,11.47
2023-05-04T22:00:45.644Z,10.30
2023-05-04T22:03:13.131Z,9.97
2023-05-04T22:05:48.429Z,10.80
2023-05-04T22:08:16.259Z,9.60
2023-05-04T22:10:44.225Z,8.97
2023-05-04T22:13:12.405Z,10.47
2023-05-04T22:15:49.496Z,9.43
2023-05-04T22:18:18.493Z,8.60
2023-05-04T22:20:46.339Z,11.93
2023-05-04T22:23:14.138Z,12.57
2023-05-04T22:25:41.996Z,8.90
2023-05-04T22:28:09.825Z,10.80
2023-05-04T22:30:37.436Z,10.40
2023-05-04T22:33:05.574Z,9.70
2023-05-04T22:35:33.121Z,9.17
2023-05-04T22:38:00.534Z,11.60
2023-05-04T22:40:28.668Z,8.93
2023-05-04T22:42:56.256Z,13.07
2023-05-04T22:45:24.511Z,12.10
2023-05-04T22:47:59.692Z,11.77
2023-05-04T22:50:28.274Z,11.20
2023-05-04T22:52:56.079Z,12.70
2023-05-04T22:55:24.150Z,9.03
2023-05-04T22:57:52.287Z,10.37
2023-05-04T23:00:22.109Z,9.57
2023-05-04T23:02:57.690Z,11.00
2023-05-04T23:05:25.890Z,10.73
2023-05-04T23:07:53.476Z,10.70
2023-05-04T23:10:21.489Z,12.07
2023-05-04T23:12:49.295Z,10.60
2023-05-04T23:15:18.251Z,10.70
2023-05-04T23:17:46.159Z,13.70
2023-05-04T23:20:14.471Z,9.83
2023-05-04T23:22:42.304Z,13.33
2023-05-04T23:25:10.594Z,12.17
2023-05-04T23:27:39.498Z,14.37
2023-05-04T23:30:10.591Z,11.37
2023-05-04T23:32:42.489Z,12.00
2023-05-04T23:35:10.845Z,17.20
2023-05-04T23:37:38.574Z,13.73
2023-05-04T23:40:13.008Z,10.70
2023-05-04T23:42:40.955Z,9.53
2023-05-04T23:45:11.700Z,16.93
2023-05-04T23:47:39.216Z,11.33
2023-05-04T23:50:10.334Z,10.30
2023-05-04T23:52:38.034Z,11.27
2023-05-04T23:55:06.715Z,12.27
2023-05-04T23:57:34.744Z,12.87
